NORTHERN QUEENS  -  Heat Advisory Heat Advisory     Air Quality Alert Air Quality Alert        SOUTHERN QUEENS  -  Heat Advisory Heat Advisory     Air Quality Alert Air Quality Alert      

Active alerts

Northern Queens
  Details for Northern Queens Heat Advisory  +1 additional alert
Southern Queens
  Details for Southern Queens Heat Advisory  +1 additional alert


WXM80 ListenWXM80 Stop

You find our weather info also at:

UK Metoffice

WeatherCloud

Weather Underground

Northeastern Weather Network

AWEKAS

Citizen Weather Observer Program (CWOP)

HAMweather, WeatherForYou, PWS Weather


Weather Underground History page Text

Daily Summary for December 8, 2016 Units:  English    Metric   Both
« Previous Day
Next Day »
Daily Weekly Monthly Yearly Custom
  High: Low: Average:
Temperature: 45.2 °F 34.7 °F 39.6 °F
Dew Point: 36.2 °F 22.7 °F 30.6 °F
Humidity: 95 % 52 % 72 %
Wind Speed: 9.5 mph 0.0 mph 3.3 mph
Wind Gust: 21.0 mph - -
Wind:- - WSW
Pressure: 29.98 in 29.84 in -
Precipitation: 0.00 in    
Historical Graphs
 
 
Tabular Data for December 8, 2016
Time Temperature Dew Point Pressure Wind Wind Speed Wind Gust Humidity Rainfall Rate (Hourly)
00:04 38.1 °F 35.7 °F 29.98 in Calm     91 % 0.00 in
00:10 38.1 °F 35.7 °F 29.98 in Calm     91 % 0.00 in
00:15 38.0 °F 35.6 °F 29.98 in Calm     91 % 0.00 in
00:20 38.0 °F 35.6 °F 29.97 in Calm     91 % 0.00 in
00:25 37.9 °F 35.5 °F 29.98 in Calm   1.2 mph 91 % 0.00 in
00:30 37.8 °F 35.4 °F 29.98 in Calm     91 % 0.00 in
00:35 37.7 °F 35.3 °F 29.97 in Calm     91 % 0.00 in
00:40 37.7 °F 35.3 °F 29.97 in WNW 0.7 mph 1.2 mph 91 % 0.00 in
00:45 37.5 °F 35.1 °F 29.97 in WNW 0.1 mph 1.2 mph 91 % 0.00 in
00:50 37.4 °F 35.0 °F 29.97 in WNW 0.2 mph 1.2 mph 91 % 0.00 in
00:55 37.2 °F 34.8 °F 29.97 in WNW 1.0 mph 2.3 mph 91 % 0.00 in
01:00 37.0 °F 34.6 °F 29.96 in Calm     91 % 0.00 in
01:05 36.9 °F 34.5 °F 29.97 in Calm     91 % 0.00 in
01:11 36.8 °F 34.4 °F 29.97 in Calm     91 % 0.00 in
01:16 36.7 °F 34.6 °F 29.97 in Calm     92 % 0.00 in
01:21 36.6 °F 34.2 °F 29.97 in WNW 0.2 mph 1.2 mph 91 % 0.00 in
01:26 36.5 °F 34.4 °F 29.96 in Calm   1.2 mph 92 % 0.00 in
01:31 36.3 °F 34.2 °F 29.96 in WNW 0.2 mph 1.2 mph 92 % 0.00 in
01:36 36.2 °F 34.1 °F 29.96 in Calm     92 % 0.00 in
01:41 36.1 °F 34.0 °F 29.96 in WNW 0.1 mph 1.2 mph 92 % 0.00 in
01:46 36.0 °F 33.9 °F 29.96 in WNW 0.5 mph 1.2 mph 92 % 0.00 in
01:51 36.0 °F 33.9 °F 29.96 in WNW 0.6 mph 1.2 mph 92 % 0.00 in
01:56 35.9 °F 33.8 °F 29.96 in WNW 1.1 mph 2.3 mph 92 % 0.00 in
02:02 35.7 °F 33.6 °F 29.95 in WNW 0.4 mph 2.3 mph 92 % 0.00 in
02:07 35.6 °F 33.5 °F 29.96 in WNW 0.4 mph 1.2 mph 92 % 0.00 in
02:12 35.5 °F 33.4 °F 29.96 in WNW 0.2 mph 1.2 mph 92 % 0.00 in
02:17 35.3 °F 33.2 °F 29.96 in Calm   1.0 mph 92 % 0.00 in
02:22 35.3 °F 33.2 °F 29.96 in WNW 0.3 mph 1.2 mph 92 % 0.00 in
02:27 35.2 °F 33.4 °F 29.96 in WNW 0.5 mph 2.3 mph 93 % 0.00 in
02:32 35.2 °F 33.4 °F 29.96 in WNW 0.1 mph 1.2 mph 93 % 0.00 in
02:37 35.1 °F 33.3 °F 29.96 in WNW 0.6 mph 2.3 mph 93 % 0.00 in
02:42 35.0 °F 33.2 °F 29.96 in WNW 0.9 mph 2.3 mph 93 % 0.00 in
02:47 35.0 °F 33.2 °F 29.96 in WNW 1.2 mph 2.3 mph 93 % 0.00 in
02:53 34.9 °F 33.1 °F 29.96 in Calm   1.2 mph 93 % 0.00 in
02:58 34.9 °F 33.1 °F 29.96 in WNW 0.3 mph 1.2 mph 93 % 0.00 in
03:03 34.8 °F 33.2 °F 29.96 in WNW 0.1 mph 1.0 mph 94 % 0.00 in
03:08 34.8 °F 33.2 °F 29.96 in WNW 0.9 mph 2.3 mph 94 % 0.00 in
03:13 34.7 °F 32.9 °F 29.96 in WNW 0.2 mph 1.2 mph 93 % 0.00 in
03:18 34.7 °F 32.9 °F 29.96 in WNW 0.7 mph 2.3 mph 93 % 0.00 in
03:23 34.7 °F 33.2 °F 29.96 in WNW 0.4 mph 2.0 mph 94 % 0.00 in
03:28 34.7 °F 33.2 °F 29.96 in WNW 1.0 mph 2.3 mph 94 % 0.00 in
03:33 34.8 °F 33.2 °F 29.96 in WNW 1.6 mph 2.3 mph 94 % 0.00 in
03:38 34.8 °F 33.2 °F 29.96 in WNW 1.0 mph 2.3 mph 94 % 0.00 in
03:43 34.8 °F 33.2 °F 29.95 in WNW 1.1 mph 2.3 mph 94 % 0.00 in
03:48 34.9 °F 33.3 °F 29.95 in WNW 1.3 mph 3.5 mph 94 % 0.00 in
03:54 35.0 °F 33.4 °F 29.95 in SW 2.0 mph 4.0 mph 94 % 0.00 in
03:59 35.1 °F 33.5 °F 29.95 in SW 1.0 mph 2.3 mph 94 % 0.00 in
04:04 35.2 °F 33.6 °F 29.95 in SW 1.4 mph 3.5 mph 94 % 0.00 in
04:09 35.4 °F 34.1 °F 29.95 in SW 1.5 mph 3.5 mph 95 % 0.00 in
04:14 35.6 °F 34.3 °F 29.95 in SW 1.3 mph 4.0 mph 95 % 0.00 in
04:19 35.7 °F 34.4 °F 29.95 in WSW 2.1 mph 3.5 mph 95 % 0.00 in
04:24 35.9 °F 34.6 °F 29.95 in SW 1.8 mph 3.5 mph 95 % 0.00 in
04:29 36.0 °F 34.7 °F 29.95 in SW 1.3 mph 3.5 mph 95 % 0.00 in
04:34 36.1 °F 34.8 °F 29.95 in SW 1.3 mph 3.5 mph 95 % 0.00 in
04:39 36.1 °F 34.8 °F 29.94 in SW 1.8 mph 3.5 mph 95 % 0.00 in
04:44 36.2 °F 34.9 °F 29.94 in SW 1.4 mph 3.5 mph 95 % 0.00 in
04:49 36.2 °F 34.9 °F 29.94 in SW 2.4 mph 3.5 mph 95 % 0.00 in
04:54 36.3 °F 35.0 °F 29.94 in SW 1.5 mph 3.5 mph 95 % 0.00 in
05:00 36.4 °F 35.1 °F 29.94 in SW 0.1 mph 3.5 mph 95 % 0.00 in
05:05 36.4 °F 35.1 °F 29.94 in West 0.8 mph 3.5 mph 95 % 0.00 in
05:10 36.5 °F 35.2 °F 29.94 in WSW 1.6 mph 3.5 mph 95 % 0.00 in
05:15 36.5 °F 34.9 °F 29.95 in WSW 0.6 mph 2.3 mph 94 % 0.00 in
05:20 36.6 °F 35.0 °F 29.94 in WSW 1.0 mph 2.3 mph 94 % 0.00 in
05:25 36.6 °F 35.0 °F 29.93 in WSW 1.4 mph 3.5 mph 94 % 0.00 in
05:30 36.6 °F 35.0 °F 29.94 in WSW 0.9 mph 2.3 mph 94 % 0.00 in
05:35 36.6 °F 34.8 °F 29.94 in WSW 0.8 mph 2.3 mph 93 % 0.00 in
05:40 36.7 °F 34.9 °F 29.93 in SW 1.5 mph 3.0 mph 93 % 0.00 in
05:45 36.7 °F 34.9 °F 29.94 in SW 2.0 mph 3.5 mph 93 % 0.00 in
05:50 36.6 °F 34.8 °F 29.94 in SW 1.8 mph 3.5 mph 93 % 0.00 in
05:55 36.7 °F 34.6 °F 29.94 in SW 1.4 mph 3.5 mph 92 % 0.00 in
06:01 36.6 °F 34.5 °F 29.93 in SW 1.2 mph 3.5 mph 92 % 0.00 in
06:06 36.6 °F 34.5 °F 29.94 in SW 2.0 mph 2.3 mph 92 % 0.00 in
06:11 36.6 °F 34.2 °F 29.94 in SW 1.7 mph 3.5 mph 91 % 0.00 in
06:16 36.6 °F 34.2 °F 29.94 in SW 2.3 mph 3.5 mph 91 % 0.00 in
06:21 36.5 °F 34.1 °F 29.94 in SW 2.7 mph 4.6 mph 91 % 0.00 in
06:26 36.5 °F 34.1 °F 29.94 in SW 1.7 mph 3.5 mph 91 % 0.00 in
06:31 36.5 °F 34.1 °F 29.94 in SW 1.2 mph 2.3 mph 91 % 0.00 in
06:36 36.5 °F 34.1 °F 29.94 in WSW 1.9 mph 3.5 mph 91 % 0.00 in
06:41 36.5 °F 33.8 °F 29.94 in SW 0.9 mph 2.3 mph 90 % 0.00 in
06:46 36.6 °F 33.9 °F 29.94 in SW 1.6 mph 2.3 mph 90 % 0.00 in
06:52 36.6 °F 33.9 °F 29.94 in SW 2.3 mph 2.3 mph 90 % 0.00 in
06:57 36.6 °F 33.9 °F 29.94 in SW 2.4 mph 3.5 mph 90 % 0.00 in
07:02 36.6 °F 33.9 °F 29.94 in SW 1.5 mph 3.5 mph 90 % 0.00 in
07:07 36.6 °F 33.9 °F 29.94 in SW 2.9 mph 4.0 mph 90 % 0.00 in
07:12 36.6 °F 33.9 °F 29.95 in SSW 3.9 mph 5.8 mph 90 % 0.00 in
07:17 36.7 °F 34.0 °F 29.94 in SSW 2.1 mph 3.5 mph 90 % 0.00 in
07:22 36.7 °F 34.0 °F 29.95 in SSW 2.1 mph 3.5 mph 90 % 0.00 in
07:27 36.8 °F 34.1 °F 29.95 in SW 1.6 mph 2.3 mph 90 % 0.00 in
07:32 36.9 °F 34.0 °F 29.94 in SW 2.7 mph 3.5 mph 89 % 0.00 in
07:37 37.0 °F 34.3 °F 29.95 in SW 2.3 mph 3.5 mph 90 % 0.00 in
07:43 37.1 °F 34.4 °F 29.94 in SSW 1.9 mph 3.5 mph 90 % 0.00 in
07:48 37.2 °F 34.3 °F 29.94 in SSW 2.6 mph 3.5 mph 89 % 0.00 in
07:53 37.3 °F 34.4 °F 29.94 in SSW 1.0 mph 2.3 mph 89 % 0.00 in
07:58 37.4 °F 34.5 °F 29.94 in SSW 0.5 mph 2.3 mph 89 % 0.00 in
08:03 37.6 °F 34.9 °F 29.93 in SSW 0.6 mph 1.2 mph 90 % 0.00 in
08:08 37.7 °F 35.0 °F 29.93 in SSW 1.5 mph 3.5 mph 90 % 0.00 in
08:13 37.9 °F 35.2 °F 29.94 in SW 1.7 mph 3.5 mph 90 % 0.00 in
08:23 38.2 °F 35.2 °F 29.94 in SSW 1.0 mph 3.0 mph 89 % 0.00 in
08:28 38.4 °F 35.4 °F 29.94 in SSW 2.2 mph 3.5 mph 89 % 0.00 in
08:34 38.6 °F 35.6 °F 29.94 in SSW 2.3 mph 4.6 mph 89 % 0.00 in
08:39 38.8 °F 35.6 °F 29.94 in SSW 1.2 mph 2.3 mph 88 % 0.00 in
08:44 38.9 °F 35.6 °F 29.93 in SSW 0.3 mph 2.3 mph 88 % 0.00 in
08:49 39.1 °F 35.8 °F 29.94 in SSW 1.3 mph 3.5 mph 88 % 0.00 in
08:54 39.3 °F 36.0 °F 29.94 in SSW 2.1 mph 4.0 mph 88 % 0.00 in
08:59 39.5 °F 36.0 °F 29.94 in Calm   1.2 mph 87 % 0.00 in
09:04 39.7 °F 35.9 °F 29.94 in West 1.2 mph 2.3 mph 86 % 0.00 in
09:09 39.9 °F 36.1 °F 29.94 in SW 1.5 mph 3.5 mph 86 % 0.00 in
09:14 40.1 °F 36.2 °F 29.94 in SSW 0.6 mph 2.3 mph 86 % 0.00 in
09:19 40.4 °F 36.2 °F 29.94 in WSW 1.7 mph 3.5 mph 85 % 0.00 in
09:24 40.6 °F 35.8 °F 29.93 in WSW 1.5 mph 3.5 mph 83 % 0.00 in
09:30 40.9 °F 35.8 °F 29.93 in SSW 0.3 mph 3.5 mph 82 % 0.00 in
09:35 41.0 °F 35.9 °F 29.93 in SSW 1.0 mph 3.0 mph 82 % 0.00 in
09:40 41.2 °F 36.1 °F 29.93 in SW 1.0 mph 3.0 mph 82 % 0.00 in
09:45 41.4 °F 35.4 °F 29.93 in West 1.0 mph 4.0 mph 79 % 0.00 in
09:50 41.6 °F 35.6 °F 29.93 in Calm   3.0 mph 79 % 0.00 in
09:55 41.8 °F 35.4 °F 29.93 in West 0.9 mph 2.3 mph 78 % 0.00 in
10:00 42.0 °F 35.3 °F 29.93 in Calm   2.3 mph 77 % 0.00 in
10:05 42.2 °F 35.5 °F 29.93 in WSW 2.6 mph 4.6 mph 77 % 0.00 in
10:10 42.4 °F 35.4 °F 29.92 in SSW 1.5 mph 4.6 mph 76 % 0.00 in
10:15 42.6 °F 35.2 °F 29.92 in WSW 3.8 mph 5.8 mph 75 % 0.00 in
10:20 42.7 °F 35.0 °F 29.91 in SSW 1.0 mph 3.5 mph 74 % 0.00 in
10:25 42.9 °F 34.8 °F 29.92 in WSW 3.9 mph 6.0 mph 73 % 0.00 in
10:30 43.1 °F 34.7 °F 29.92 in West 3.6 mph 5.8 mph 72 % 0.00 in
10:35 43.2 °F 35.1 °F 29.92 in West 3.8 mph 8.1 mph 73 % 0.00 in
10:40 43.4 °F 35.0 °F 29.91 in WSW 3.3 mph 6.0 mph 72 % 0.00 in
10:46 43.5 °F 34.7 °F 29.91 in WSW 4.8 mph 8.1 mph 71 % 0.00 in
10:51 43.6 °F 34.5 °F 29.90 in SSW 1.5 mph 2.3 mph 70 % 0.00 in
10:56 43.7 °F 34.6 °F 29.90 in West 2.3 mph 5.0 mph 70 % 0.00 in
11:01 43.7 °F 34.2 °F 29.90 in SW 1.7 mph 3.5 mph 69 % 0.00 in
11:06 43.8 °F 34.3 °F 29.90 in SW 4.1 mph 4.6 mph 69 % 0.00 in
11:11 43.9 °F 34.7 °F 29.89 in WSW 2.7 mph 4.6 mph 70 % 0.00 in
11:16 44.0 °F 34.1 °F 29.89 in West 1.2 mph 5.8 mph 68 % 0.00 in
11:21 44.0 °F 33.4 °F 29.89 in SW 6.3 mph 11.5 mph 66 % 0.00 in
11:26 44.1 °F 33.1 °F 29.89 in WNW 2.8 mph 5.0 mph 65 % 0.00 in
11:31 44.2 °F 33.2 °F 29.88 in WSW 4.0 mph 8.0 mph 65 % 0.00 in
11:37 44.3 °F 33.3 °F 29.88 in SSE 1.7 mph 6.9 mph 65 % 0.00 in
11:42 44.4 °F 33.4 °F 29.88 in West 6.0 mph 11.0 mph 65 % 0.00 in
11:47 44.4 °F 33.0 °F 29.87 in WSW 4.4 mph 8.1 mph 64 % 0.00 in
11:52 44.6 °F 32.8 °F 29.87 in WSW 3.9 mph 6.9 mph 63 % 0.00 in
11:57 44.6 °F 32.0 °F 29.87 in WSW 3.9 mph 6.9 mph 61 % 0.00 in
12:02 44.6 °F 32.4 °F 29.87 in WSW 4.8 mph 6.9 mph 62 % 0.00 in
12:07 44.6 °F 32.4 °F 29.86 in SW 3.5 mph 8.0 mph 62 % 0.00 in
12:12 44.7 °F 32.5 °F 29.86 in WSW 4.4 mph 9.0 mph 62 % 0.00 in
12:17 44.7 °F 32.5 °F 29.86 in WSW 2.7 mph 4.6 mph 62 % 0.00 in
12:22 44.8 °F 32.6 °F 29.86 in WSW 6.4 mph 9.0 mph 62 % 0.00 in
12:28 44.9 °F 31.8 °F 29.85 in WSW 5.2 mph 8.1 mph 60 % 0.00 in
12:33 44.9 °F 30.6 °F 29.85 in West 4.6 mph 9.2 mph 57 % 0.00 in
12:38 45.0 °F 31.1 °F 29.85 in WNW 2.8 mph 8.1 mph 58 % 0.00 in
12:43 45.1 °F 31.6 °F 29.84 in West 3.9 mph 6.9 mph 59 % 0.00 in
12:48 45.2 °F 31.3 °F 29.84 in West 5.4 mph 9.0 mph 58 % 0.00 in
12:53 45.2 °F 31.3 °F 29.84 in SW 4.4 mph 9.0 mph 58 % 0.00 in
12:58 45.2 °F 30.0 °F 29.84 in WSW 5.7 mph 10.4 mph 55 % 0.00 in
13:03 45.1 °F 30.3 °F 29.84 in West 6.4 mph 12.7 mph 56 % 0.00 in
13:08 45.1 °F 30.8 °F 29.84 in WNW 4.2 mph 11.5 mph 57 % 0.00 in
13:13 45.0 °F 30.2 °F 29.84 in WSW 5.9 mph 8.1 mph 56 % 0.00 in
13:18 44.9 °F 30.1 °F 29.84 in West 6.7 mph 16.1 mph 56 % 0.00 in
13:24 44.8 °F 30.0 °F 29.84 in SW 4.9 mph 9.2 mph 56 % 0.00 in
13:29 44.6 °F 29.9 °F 29.84 in WNW 8.4 mph 9.2 mph 56 % 0.00 in
13:34 44.5 °F 30.2 °F 29.84 in WSW 5.2 mph 12.0 mph 57 % 0.00 in
13:39 44.3 °F 30.4 °F 29.84 in SSW 5.7 mph 11.5 mph 58 % 0.00 in
13:44 44.3 °F 30.0 °F 29.84 in WSW 4.0 mph 6.9 mph 57 % 0.00 in
13:49 44.2 °F 29.9 °F 29.84 in SW 7.0 mph 15.0 mph 57 % 0.00 in
13:54 44.1 °F 29.8 °F 29.84 in West 8.1 mph 12.0 mph 57 % 0.00 in
13:59 43.9 °F 29.6 °F 29.84 in West 6.9 mph 12.7 mph 57 % 0.00 in
14:04 43.8 °F 30.0 °F 29.84 in West 5.8 mph 11.5 mph 58 % 0.00 in
14:09 43.7 °F 28.6 °F 29.84 in NW 4.9 mph 9.2 mph 55 % 0.00 in
14:15 43.6 °F 28.9 °F 29.84 in West 1.9 mph 6.9 mph 56 % 0.00 in
14:20 43.5 °F 28.4 °F 29.84 in WSW 5.0 mph 12.0 mph 55 % 0.00 in
14:25 43.4 °F 28.3 °F 29.84 in SW 5.7 mph 10.4 mph 55 % 0.00 in
14:30 43.3 °F 27.8 °F 29.84 in SW 5.0 mph 15.0 mph 54 % 0.00 in
14:35 43.3 °F 28.2 °F 29.85 in WSW 5.0 mph 12.0 mph 55 % 0.00 in
14:40 43.2 °F 27.7 °F 29.85 in West 3.0 mph 12.0 mph 54 % 0.00 in
14:45 43.2 °F 28.1 °F 29.85 in West 5.0 mph 12.0 mph 55 % 0.00 in
14:50 43.1 °F 28.0 °F 29.85 in West 7.0 mph 17.0 mph 55 % 0.00 in
14:55 43.0 °F 27.9 °F 29.85 in WSW 5.0 mph 13.0 mph 55 % 0.00 in
15:00 42.9 °F 26.9 °F 29.85 in West 5.4 mph 12.7 mph 53 % 0.00 in
15:05 42.7 °F 26.7 °F 29.85 in WNW 4.0 mph 13.8 mph 53 % 0.00 in
15:10 42.7 °F 26.7 °F 29.85 in West 5.4 mph 12.0 mph 53 % 0.00 in
15:15 42.6 °F 26.2 °F 29.85 in WSW 5.5 mph 13.0 mph 52 % 0.00 in
15:20 42.5 °F 27.0 °F 29.85 in West 2.9 mph 4.6 mph 54 % 0.00 in
15:25 42.5 °F 27.0 °F 29.85 in SW 8.2 mph 16.1 mph 54 % 0.00 in
15:30 42.4 °F 27.4 °F 29.85 in SSW 5.6 mph 11.5 mph 55 % 0.00 in
15:35 42.4 °F 27.4 °F 29.85 in SW 3.3 mph 3.5 mph 55 % 0.00 in
15:40 42.3 °F 27.7 °F 29.85 in WSW 3.4 mph 11.5 mph 56 % 0.00 in
15:46 42.2 °F 26.7 °F 29.85 in West 3.3 mph 10.4 mph 54 % 0.00 in
15:51 42.1 °F 26.6 °F 29.85 in WNW 3.7 mph 11.5 mph 54 % 0.00 in
15:56 42.0 °F 27.4 °F 29.85 in West 0.6 mph 3.5 mph 56 % 0.00 in
16:01 41.9 °F 27.3 °F 29.85 in WNW 5.9 mph 9.0 mph 56 % 0.00 in
16:06 41.8 °F 26.8 °F 29.86 in SW 3.5 mph 11.5 mph 55 % 0.00 in
16:11 41.7 °F 26.7 °F 29.86 in WSW 4.5 mph 6.9 mph 55 % 0.00 in
16:16 41.6 °F 26.6 °F 29.86 in SW 4.3 mph 8.1 mph 55 % 0.00 in
16:21 41.6 °F 26.6 °F 29.86 in SW 6.4 mph 12.7 mph 55 % 0.00 in
16:26 41.5 °F 26.5 °F 29.86 in WSW 5.9 mph 12.0 mph 55 % 0.00 in
16:31 41.5 °F 27.0 °F 29.86 in SW 3.5 mph 6.0 mph 56 % 0.00 in
16:37 41.4 °F 26.9 °F 29.86 in WSW 5.0 mph 11.0 mph 56 % 0.00 in
16:42 41.3 °F 27.6 °F 29.86 in WSW 6.4 mph 12.7 mph 58 % 0.00 in
16:47 41.3 °F 27.6 °F 29.87 in WNW 4.9 mph 6.9 mph 58 % 0.00 in
16:52 41.2 °F 27.1 °F 29.87 in WSW 3.9 mph 6.9 mph 57 % 0.00 in
16:57 41.1 °F 27.0 °F 29.87 in WNW 2.4 mph 6.9 mph 57 % 0.00 in
17:02 41.0 °F 26.9 °F 29.87 in WSW 2.9 mph 5.0 mph 57 % 0.00 in
17:07 41.0 °F 26.9 °F 29.87 in WSW 2.6 mph 4.0 mph 57 % 0.00 in
17:12 41.0 °F 27.3 °F 29.87 in West 3.3 mph 8.1 mph 58 % 0.00 in
17:17 41.0 °F 27.3 °F 29.88 in West 4.2 mph 8.0 mph 58 % 0.00 in
17:22 41.0 °F 27.3 °F 29.87 in WNW 6.7 mph 13.8 mph 58 % 0.00 in
17:28 41.0 °F 27.3 °F 29.87 in West 1.4 mph 3.5 mph 58 % 0.00 in
17:33 40.9 °F 27.2 °F 29.88 in SW 0.9 mph 4.6 mph 58 % 0.00 in
17:38 40.9 °F 27.2 °F 29.88 in West 4.7 mph 8.1 mph 58 % 0.00 in
17:43 40.9 °F 26.8 °F 29.88 in WNW 4.8 mph 8.1 mph 57 % 0.00 in
17:48 40.9 °F 26.8 °F 29.88 in SW 1.0 mph 3.5 mph 57 % 0.00 in
17:53 40.9 °F 26.8 °F 29.89 in WNW 3.7 mph 10.4 mph 57 % 0.00 in
17:58 40.9 °F 26.8 °F 29.89 in WNW 6.2 mph 11.5 mph 57 % 0.00 in
18:03 41.0 °F 26.9 °F 29.89 in NW 3.4 mph 9.2 mph 57 % 0.00 in
18:08 41.0 °F 26.9 °F 29.89 in NW 3.9 mph 5.8 mph 57 % 0.00 in
18:13 41.1 °F 27.0 °F 29.89 in West 3.4 mph 7.0 mph 57 % 0.00 in
18:19 41.1 °F 26.6 °F 29.89 in WNW 3.7 mph 8.0 mph 56 % 0.00 in
18:24 41.0 °F 26.5 °F 29.89 in WSW 4.1 mph 11.5 mph 56 % 0.00 in
18:29 40.9 °F 26.0 °F 29.89 in WSW 1.3 mph 5.8 mph 55 % 0.00 in
18:34 40.9 °F 26.0 °F 29.89 in WSW 3.4 mph 6.0 mph 55 % 0.00 in
18:39 40.9 °F 26.0 °F 29.90 in NW 5.1 mph 10.4 mph 55 % 0.00 in
18:44 40.9 °F 26.0 °F 29.90 in WSW 7.5 mph 11.5 mph 55 % 0.00 in
18:49 40.9 °F 25.5 °F 29.90 in WSW 7.3 mph 10.0 mph 54 % 0.00 in
18:54 40.9 °F 25.5 °F 29.90 in WNW 8.0 mph 12.0 mph 54 % 0.00 in
18:59 41.0 °F 25.6 °F 29.90 in WNW 4.9 mph 6.9 mph 54 % 0.00 in
19:05 41.0 °F 26.5 °F 29.90 in West 6.2 mph 8.1 mph 56 % 0.00 in
19:10 41.0 °F 26.5 °F 29.90 in West 5.0 mph 8.1 mph 56 % 0.00 in
19:15 40.9 °F 26.4 °F 29.90 in SW 3.3 mph 6.9 mph 56 % 0.00 in
19:20 40.8 °F 26.3 °F 29.90 in WNW 5.3 mph 11.5 mph 56 % 0.00 in
19:25 40.7 °F 26.2 °F 29.90 in WSW 7.9 mph 12.7 mph 56 % 0.00 in
19:30 40.6 °F 25.7 °F 29.90 in West 3.5 mph 14.0 mph 55 % 0.00 in
19:35 40.6 °F 25.2 °F 29.90 in West 7.2 mph 21.0 mph 54 % 0.00 in
19:40 40.5 °F 25.1 °F 29.90 in West 8.5 mph 19.6 mph 54 % 0.00 in
19:45 40.4 °F 25.1 °F 29.91 in WNW 2.5 mph 9.2 mph 54 % 0.00 in
19:50 40.4 °F 25.5 °F 29.90 in WSW 7.6 mph 9.2 mph 55 % 0.00 in
19:56 40.3 °F 25.4 °F 29.90 in SW 9.0 mph 17.3 mph 55 % 0.00 in
20:00 40.2 °F 25.7 °F 29.91 in West 4.7 mph 11.5 mph 56 % 0.00 in
20:06 40.2 °F 24.9 °F 29.91 in West 6.3 mph 11.5 mph 54 % 0.00 in
20:11 40.0 °F 25.1 °F 29.91 in SW 7.2 mph 17.3 mph 55 % 0.00 in
20:16 39.9 °F 25.0 °F 29.91 in WNW 3.6 mph 8.1 mph 55 % 0.00 in
20:21 39.8 °F 24.9 °F 29.91 in WNW 4.0 mph 9.2 mph 55 % 0.00 in
20:26 39.7 °F 24.8 °F 29.91 in NNW 7.0 mph 9.2 mph 55 % 0.00 in
20:31 39.6 °F 24.7 °F 29.91 in SW 9.5 mph 16.1 mph 55 % 0.00 in
20:36 39.5 °F 24.2 °F 29.91 in WSW 9.0 mph 17.0 mph 54 % 0.00 in
20:41 39.4 °F 25.0 °F 29.91 in WNW 5.2 mph 11.5 mph 56 % 0.00 in
20:46 39.4 °F 25.4 °F 29.91 in NW 7.9 mph 10.4 mph 57 % 0.00 in
20:51 39.3 °F 25.7 °F 29.91 in WNW 5.9 mph 9.2 mph 58 % 0.00 in
20:57 39.1 °F 24.7 °F 29.91 in West 4.9 mph 10.4 mph 56 % 0.00 in
21:02 39.0 °F 24.6 °F 29.92 in NW 4.0 mph 8.0 mph 56 % 0.00 in
21:07 38.9 °F 24.5 °F 29.92 in WNW 7.9 mph 13.8 mph 56 % 0.00 in
21:12 38.8 °F 24.9 °F 29.92 in WNW 6.2 mph 13.0 mph 57 % 0.00 in
21:17 38.7 °F 24.8 °F 29.92 in West 5.1 mph 9.2 mph 57 % 0.00 in
21:22 38.6 °F 24.7 °F 29.92 in WSW 5.1 mph 11.5 mph 57 % 0.00 in
21:27 38.5 °F 23.7 °F 29.92 in NW 5.9 mph 11.5 mph 55 % 0.00 in
21:32 38.5 °F 24.6 °F 29.92 in NW 5.5 mph 11.5 mph 57 % 0.00 in
21:37 38.4 °F 22.7 °F 29.92 in WNW 9.1 mph 16.1 mph 53 % 0.00 in
21:42 38.4 °F 24.1 °F 29.92 in NW 4.4 mph 10.0 mph 56 % 0.00 in
21:48 38.4 °F 24.1 °F 29.92 in West 5.8 mph 15.0 mph 56 % 0.00 in
21:58 38.1 °F 23.3 °F 29.93 in WNW 4.9 mph 15.0 mph 55 % 0.00 in
22:03 38.1 °F 23.8 °F 29.93 in WNW 5.5 mph 14.0 mph 56 % 0.00 in
22:08 38.0 °F 23.7 °F 29.93 in WSW 6.3 mph 12.7 mph 56 % 0.00 in
22:13 37.9 °F 23.2 °F 29.93 in NNW 5.6 mph 11.5 mph 55 % 0.00 in
22:18 37.9 °F 24.0 °F 29.93 in SW 5.0 mph 5.0 mph 57 % 0.00 in
22:23 37.8 °F 23.5 °F 29.93 in West 6.9 mph 16.1 mph 56 % 0.00 in
22:28 37.7 °F 23.8 °F 29.93 in SW 3.6 mph 12.7 mph 57 % 0.00 in
22:33 37.6 °F 23.7 °F 29.93 in WSW 5.5 mph 14.0 mph 57 % 0.00 in
22:39 37.5 °F 23.6 °F 29.93 in WNW 5.1 mph 9.2 mph 57 % 0.00 in
22:44 37.4 °F 24.0 °F 29.93 in SW 8.2 mph 11.5 mph 58 % 0.00 in
22:49 37.3 °F 23.4 °F 29.93 in West 6.4 mph 13.8 mph 57 % 0.00 in
22:54 37.3 °F 23.9 °F 29.93 in West 3.0 mph 6.9 mph 58 % 0.00 in
22:59 37.2 °F 23.8 °F 29.93 in West 3.8 mph 11.0 mph 58 % 0.00 in
23:04 37.1 °F 23.7 °F 29.93 in NW 6.3 mph 11.5 mph 58 % 0.00 in
23:09 37.0 °F 23.6 °F 29.93 in WNW 6.6 mph 19.6 mph 58 % 0.00 in
23:14 37.0 °F 23.2 °F 29.93 in West 5.4 mph 10.4 mph 57 % 0.00 in
23:19 36.9 °F 23.5 °F 29.93 in WNW 5.2 mph 10.4 mph 58 % 0.00 in
23:24 36.9 °F 23.1 °F 29.93 in WSW 6.1 mph 12.7 mph 57 % 0.00 in
23:29 36.8 °F 23.0 °F 29.93 in SW 9.4 mph 17.0 mph 57 % 0.00 in
23:34 36.8 °F 23.4 °F 29.93 in WNW 6.6 mph 12.7 mph 58 % 0.00 in
23:39 36.7 °F 23.3 °F 29.93 in WSW 9.1 mph 13.8 mph 58 % 0.00 in
23:45 36.6 °F 23.2 °F 29.93 in West 6.0 mph 14.0 mph 58 % 0.00 in
23:50 36.5 °F 22.7 °F 29.93 in SW 6.5 mph 8.1 mph 57 % 0.00 in
Crab Meadow Weather
Compliments of Weather Underground - 3 mb

Script developed by  Jim McMurry - jmcmurry@mwt.net Adapted for the template by  Wim van der Kuil - Leuven-Template.eu

Barometer: A barometer is an instrument used to measure atmospheric pressure. A barometer is commonly used for weather prediction, as high air pressure in a region indicates fair weather while low pressure indicates that storms are more likely. When used in combination with wind observations, reasonably accurate short-term forecasts can be made.